createdAt,value
2023-04-10T00:01:57.471Z,45.28
2023-04-10T00:07:01.730Z,43.78
2023-04-10T00:12:04.590Z,43.92
2023-04-10T00:17:07.906Z,45.97
2023-04-10T00:22:12.052Z,46.92
2023-04-10T00:27:14.759Z,45.85
2023-04-10T00:32:17.490Z,46.28
2023-04-10T00:37:21.744Z,46.45
2023-04-10T00:42:24.610Z,41.40
2023-04-10T00:47:28.348Z,44.63
2023-04-10T00:52:33.740Z,45.22
2023-04-10T00:57:36.943Z,41.55
2023-04-10T01:02:39.935Z,41.33
2023-04-10T01:07:57.086Z,43.03
2023-04-10T01:13:07.736Z,43.75
2023-04-10T01:18:17.737Z,41.70
2023-04-10T01:23:43.115Z,42.15
2023-04-10T01:29:00.269Z,42.72
2023-04-10T01:34:08.197Z,40.88
2023-04-10T01:39:12.322Z,42.95
2023-04-10T01:44:19.202Z,44.30
2023-04-10T01:49:26.067Z,48.67
2023-04-10T01:54:36.842Z,44.60
2023-04-10T01:59:41.335Z,42.30
2023-04-10T02:04:46.549Z,47.10
2023-04-10T02:09:58.468Z,44.13
2023-04-10T02:15:06.427Z,39.30
2023-04-10T02:20:11.697Z,41.45
2023-04-10T02:25:16.090Z,41.00
2023-04-10T02:30:20.186Z,41.35
2023-04-10T02:35:23.433Z,42.50
2023-04-10T02:40:26.256Z,45.25
2023-04-10T02:45:45.709Z,43.05
2023-04-10T02:50:57.730Z,45.90
2023-04-10T02:56:02.496Z,42.40
2023-04-10T03:01:07.993Z,43.70
2023-04-10T03:06:15.621Z,42.30
2023-04-10T03:11:21.140Z,42.92
2023-04-10T03:16:25.500Z,46.00
2023-04-10T03:21:28.675Z,46.63
2023-04-10T03:26:31.817Z,39.72
2023-04-10T03:31:36.167Z,41.05
2023-04-10T03:36:39.073Z,46.95
2023-04-10T03:41:41.764Z,49.13
2023-04-10T03:46:46.185Z,46.33
2023-04-10T03:51:49.164Z,42.88
2023-04-10T03:56:52.066Z,41.92
2023-04-10T04:01:58.756Z,44.45
2023-04-10T04:07:01.898Z,45.08
2023-04-10T04:12:18.476Z,40.65
2023-04-10T04:17:38.066Z,43.80
2023-04-10T04:22:43.739Z,44.45
2023-04-10T04:28:06.834Z,41.70
2023-04-10T04:33:10.915Z,45.72
2023-04-10T04:38:31.793Z,45.13
2023-04-10T04:44:12.658Z,43.08
2023-04-10T04:49:37.223Z,41.63
2023-04-10T04:55:03.200Z,43.13
2023-04-10T05:00:29.144Z,45.58
2023-04-10T05:05:46.683Z,42.47
2023-04-10T05:11:02.531Z,41.67
2023-04-10T05:16:31.445Z,41.05
2023-04-10T05:21:56.296Z,44.78
2023-04-10T05:26:59.028Z,44.40
2023-04-10T05:32:08.632Z,40.58
2023-04-10T05:37:36.147Z,39.75
2023-04-10T05:42:58.816Z,38.17
2023-04-10T05:48:09.609Z,34.55
2023-04-10T05:53:34.130Z,35.28
2023-04-10T05:58:57.191Z,38.45
2023-04-10T06:04:31.899Z,34.30
2023-04-10T06:09:38.078Z,35.80
2023-04-10T06:14:43.530Z,33.65
2023-04-10T06:19:47.852Z,33.72
2023-04-10T06:24:51.929Z,34.85
2023-04-10T06:29:54.777Z,32.65
2023-04-10T06:34:59.350Z,33.58
2023-04-10T06:40:10.397Z,29.95
2023-04-10T06:45:13.639Z,30.83
2023-04-10T06:50:16.477Z,30.95
2023-04-10T06:55:20.611Z,27.65
2023-04-10T07:00:24.084Z,29.42
2023-04-10T07:05:27.149Z,24.23
2023-04-10T07:10:31.425Z,26.73
2023-04-10T07:15:34.307Z,25.30
2023-04-10T07:20:37.162Z,27.15
2023-04-10T07:25:42.744Z,25.23
2023-04-10T07:30:46.167Z,26.45
2023-04-10T07:35:48.981Z,24.73
2023-04-10T07:40:58.340Z,23.42
2023-04-10T07:46:01.111Z,24.50
2023-04-10T07:51:04.118Z,23.10
2023-04-10T07:56:10.810Z,22.13
2023-04-10T08:01:14.086Z,23.85
2023-04-10T08:06:16.849Z,25.13
2023-04-10T08:11:29.180Z,25.45
2023-04-10T08:16:33.736Z,24.17
2023-04-10T08:21:36.549Z,25.17
2023-04-10T08:26:40.806Z,23.50
2023-04-10T08:31:43.680Z,26.27
2023-04-10T08:36:46.575Z,26.42
2023-04-10T08:41:50.943Z,24.15
2023-04-10T08:46:54.044Z,25.90
2023-04-10T08:51:58.915Z,25.48
2023-04-10T08:57:04.107Z,23.33
2023-04-10T09:02:07.559Z,22.17
2023-04-10T09:07:10.385Z,22.58
2023-04-10T09:12:15.617Z,20.38
2023-04-10T09:17:20.209Z,19.63
2023-04-10T09:22:30.997Z,21.55
2023-04-10T09:27:37.291Z,18.23
2023-04-10T09:32:42.288Z,18.30
2023-04-10T09:37:46.723Z,18.38
2023-04-10T09:42:51.000Z,15.07
2023-04-10T09:48:05.101Z,11.80
2023-04-10T09:53:08.226Z,12.50
2023-04-10T09:58:13.804Z,12.93
2023-04-10T10:03:18.109Z,13.35
2023-04-10T10:08:22.324Z,12.18
2023-04-10T10:13:32.816Z,13.55
2023-04-10T10:18:45.024Z,11.45
2023-04-10T10:23:53.954Z,9.73
2023-04-10T10:29:00.200Z,10.68
2023-04-10T10:34:05.028Z,8.97
2023-04-10T10:39:25.864Z,7.90
2023-04-10T10:44:42.375Z,8.88
2023-04-10T10:49:56.275Z,12.25
2023-04-10T10:55:00.270Z,9.45
2023-04-10T11:00:05.482Z,9.60
2023-04-10T11:05:08.994Z,7.82
2023-04-10T11:10:19.451Z,8.25
2023-04-10T11:15:26.285Z,8.20
2023-04-10T11:20:29.230Z,7.55
2023-04-10T11:25:49.072Z,7.72
2023-04-10T11:30:54.617Z,9.38
2023-04-10T11:35:59.240Z,8.70
2023-04-10T11:41:05.506Z,9.00
2023-04-10T11:46:10.436Z,7.07
2023-04-10T11:51:14.954Z,7.15
2023-04-10T11:56:19.552Z,7.05
2023-04-10T12:01:24.538Z,9.65
2023-04-10T12:06:28.093Z,7.25
2023-04-10T12:11:31.666Z,5.85
2023-04-10T12:16:36.252Z,6.50
2023-04-10T12:21:41.067Z,6.05
2023-04-10T12:26:49.545Z,11.52
2023-04-10T12:31:53.935Z,6.45
2023-04-10T12:36:58.082Z,4.70
2023-04-10T12:42:14.461Z,5.57
2023-04-10T12:47:18.562Z,6.75
2023-04-10T12:52:24.030Z,6.47
2023-04-10T12:57:28.396Z,8.18
2023-04-10T13:02:33.028Z,6.13
2023-04-10T13:07:36.496Z,6.05
2023-04-10T13:12:40.678Z,5.50
2023-04-10T13:17:47.543Z,6.10
2023-04-10T13:22:53.455Z,6.40
2023-04-10T13:28:00.045Z,6.70
2023-04-10T13:33:04.373Z,5.55
2023-04-10T13:38:07.372Z,6.75
2023-04-10T13:43:10.227Z,6.63
2023-04-10T13:48:17.557Z,4.88
2023-04-10T13:53:21.706Z,6.70
2023-04-10T13:58:26.759Z,5.80
2023-04-10T14:03:31.109Z,9.75
2023-04-10T14:08:33.965Z,5.22
2023-04-10T14:13:37.075Z,7.10
2023-04-10T14:18:41.600Z,7.85
2023-04-10T14:23:47.814Z,7.03
2023-04-10T14:28:50.804Z,7.57
2023-04-10T14:33:55.317Z,7.47
2023-04-10T14:38:58.240Z,7.28
2023-04-10T14:44:01.062Z,9.02
2023-04-10T14:49:05.340Z,7.22
2023-04-10T14:54:11.446Z,9.50
2023-04-10T14:59:14.816Z,9.57
2023-04-10T15:04:22.640Z,6.72
2023-04-10T15:09:25.806Z,8.73
2023-04-10T15:14:28.878Z,6.32
2023-04-10T15:19:33.263Z,6.97
2023-04-10T15:24:46.849Z,8.38
2023-04-10T15:29:50.711Z,8.07
2023-04-10T15:34:56.820Z,7.68
2023-04-10T15:39:59.829Z,6.22
2023-04-10T15:45:06.262Z,5.95
2023-04-10T15:50:14.382Z,5.85
2023-04-10T15:55:18.092Z,5.43
2023-04-10T16:08:19.205Z,5.50
2023-04-10T16:15:03.809Z,7.00
2023-04-10T16:27:08.243Z,4.30
2023-04-10T16:33:03.789Z,7.18
2023-04-10T16:52:12.238Z,7.32
2023-04-10T16:57:14.955Z,8.10
2023-04-10T17:02:20.801Z,6.35
2023-04-10T17:07:25.749Z,6.13
2023-04-10T17:12:28.571Z,6.88
2023-04-10T17:17:33.967Z,5.80
2023-04-10T17:22:39.587Z,5.93
2023-04-10T17:27:42.362Z,6.38
2023-04-10T17:32:45.399Z,7.35
2023-04-10T17:37:49.679Z,5.82
2023-04-10T17:42:52.769Z,6.97
2023-04-10T17:47:55.643Z,8.85
2023-04-10T17:53:00.427Z,7.88
2023-04-10T17:58:03.321Z,8.15
2023-04-10T18:03:09.096Z,7.68
2023-04-10T18:08:13.941Z,6.45
2023-04-10T18:13:18.696Z,5.45
2023-04-10T18:18:27.392Z,6.03
2023-04-10T18:45:00.635Z,9.63
2023-04-10T18:57:09.120Z,11.93
2023-04-10T19:02:13.836Z,14.80
2023-04-10T19:07:16.749Z,9.90
2023-04-10T19:12:23.336Z,10.63
2023-04-10T19:17:26.509Z,9.45
2023-04-10T19:22:29.410Z,10.48
2023-04-10T19:27:36.786Z,12.32
2023-04-10T19:32:47.550Z,10.90
2023-04-10T19:37:52.622Z,9.95
2023-04-10T19:42:59.404Z,11.82
2023-04-10T19:48:02.309Z,10.93
2023-04-10T19:53:05.320Z,10.80
2023-04-10T19:58:17.004Z,10.55
2023-04-10T20:03:28.242Z,8.77
2023-04-10T20:08:31.219Z,8.93
2023-04-10T20:13:35.544Z,10.30
2023-04-10T20:18:40.207Z,8.05
2023-04-10T20:23:43.186Z,11.05
2023-04-10T20:28:47.299Z,8.70
2023-04-10T20:33:50.119Z,7.68
2023-04-10T20:38:54.100Z,8.77
2023-04-10T20:43:58.489Z,9.18
2023-04-10T20:49:01.330Z,9.13
2023-04-10T20:54:04.505Z,9.25
2023-04-10T20:59:08.719Z,7.88
2023-04-10T21:04:11.631Z,8.88
2023-04-10T21:09:14.593Z,7.95
2023-04-10T21:14:18.734Z,8.30
2023-04-10T21:19:21.465Z,9.07
2023-04-10T21:24:24.222Z,9.73
2023-04-10T21:29:28.407Z,8.13
2023-04-10T21:34:31.831Z,8.73
2023-04-10T21:39:40.187Z,5.78
2023-04-10T21:44:44.249Z,5.20
2023-04-10T21:49:49.123Z,5.93
2023-04-10T21:54:51.946Z,4.28
2023-04-10T21:59:56.039Z,5.03
2023-04-10T22:04:58.788Z,5.72
2023-04-10T22:10:01.536Z,6.07
2023-04-10T22:15:07.739Z,6.32
2023-04-10T22:20:11.455Z,7.68
2023-04-10T22:25:14.227Z,5.68
2023-04-10T22:30:18.756Z,5.95
2023-04-10T22:35:22.039Z,5.78
2023-04-10T22:40:24.952Z,7.60
2023-04-10T22:45:29.171Z,6.55
2023-04-10T22:50:32.167Z,11.20
2023-04-10T22:55:34.900Z,6.50
2023-04-10T23:00:39.106Z,9.30
2023-04-10T23:05:41.921Z,7.28
2023-04-10T23:10:45.035Z,8.00
2023-04-10T23:15:51.085Z,14.48
2023-04-10T23:20:53.952Z,6.93
2023-04-10T23:26:00.276Z,7.53
2023-04-10T23:31:04.490Z,7.13
2023-04-10T23:36:07.748Z,7.78
2023-04-10T23:41:10.501Z,5.07
2023-04-10T23:46:14.798Z,5.97
2023-04-10T23:51:17.577Z,6.13
2023-04-10T23:56:27.931Z,5.13
